Time;durP1;ratioP1;P1;durP2;ratioP2;P2;SDS_P1;SDS_P2;PMS_P1;PMS_P2;Temp;Humidity;BMP_temperature;BMP_pressure;BME280_temperature;BME280_humidity;BME280_pressure;Samples;Min_cycle;Max_cycle;Signal;HPM_P1;HPM_P2
2022/07/31 00:00:27;;;;;;;1.98;0.75;;;25.40;46.80;24.40;101410.00;;;;5022562;28;20450;-71
2022/07/31 00:03:13;;;;;;;0.65;0.65;;;25.40;46.20;24.30;101409.00;;;;5027086;28;20045;-71
2022/07/31 00:05:59;;;;;;;0.75;0.70;;;25.40;46.20;24.30;101411.00;;;;5024983;28;20550;-71
2022/07/31 00:08:45;;;;;;;0.68;0.68;;;25.50;46.30;24.30;101405.00;;;;5026200;28;20478;-71
2022/07/31 00:11:31;;;;;;;0.77;0.55;;;25.40;46.20;24.30;101408.00;;;;5025527;28;20053;-71
2022/07/31 00:14:17;;;;;;;2.42;0.90;;;25.30;46.10;24.30;101408.00;;;;5022198;28;20502;-70
2022/07/31 00:17:03;;;;;;;1.02;0.77;;;25.30;46.10;24.30;101410.00;;;;5020899;28;20111;-71
2022/07/31 00:19:49;;;;;;;0.93;0.93;;;25.40;46.30;24.30;101412.00;;;;5021311;28;20033;-71
2022/07/31 00:22:35;;;;;;;0.88;0.63;;;25.30;46.20;24.30;101409.00;;;;5022185;28;20406;-71
2022/07/31 00:25:21;;;;;;;1.48;0.70;;;25.30;46.30;24.30;101405.00;;;;5021106;28;20045;-71
2022/07/31 00:28:07;;;;;;;0.70;0.63;;;25.30;46.30;24.30;101397.00;;;;5029626;28;20411;-71
2022/07/31 00:30:53;;;;;;;0.63;0.63;;;25.30;46.30;24.30;101405.00;;;;5028030;28;20038;-71
2022/07/31 00:33:39;;;;;;;1.30;0.63;;;25.30;46.40;24.30;101401.00;;;;5026148;28;20042;-71
2022/07/31 00:36:25;;;;;;;1.65;0.90;;;25.30;46.40;24.30;101393.00;;;;5029328;28;20041;-71
2022/07/31 00:39:11;;;;;;;1.75;0.73;;;25.20;46.30;24.30;101391.00;;;;5021318;28;20038;-71
2022/07/31 00:41:58;;;;;;;0.95;0.60;;;25.30;46.40;24.30;101397.00;;;;5021589;28;20514;-71
2022/07/31 00:44:44;;;;;;;0.98;0.60;;;25.30;46.40;24.30;101387.00;;;;5025856;28;20453;-71
2022/07/31 00:47:30;;;;;;;1.60;0.80;;;25.30;46.40;24.30;101386.00;;;;5038214;28;20077;-71
2022/07/31 00:50:16;;;;;;;1.38;0.65;;;25.20;46.40;24.30;101382.00;;;;5028053;28;20579;-71
2022/07/31 00:53:03;;;;;;;1.70;0.80;;;25.30;46.50;24.30;101373.00;;;;5025727;28;20053;-71
2022/07/31 00:55:49;;;;;;;1.03;0.60;;;25.30;46.40;24.30;101375.00;;;;5043003;28;20038;-71
2022/07/31 00:58:35;;;;;;;0.93;0.70;;;25.20;46.40;24.30;101376.00;;;;5025525;28;20108;-71
2022/07/31 01:01:21;;;;;;;1.00;0.80;;;25.20;46.40;24.30;101375.00;;;;5025637;28;20399;-71
2022/07/31 01:04:07;;;;;;;1.33;0.68;;;25.20;46.40;24.30;101373.00;;;;5020115;28;20551;-71
2022/07/31 01:06:54;;;;;;;0.73;0.60;;;25.30;46.50;24.30;101379.00;;;;5017828;28;20387;-71
2022/07/31 01:09:41;;;;;;;1.85;0.80;;;25.30;46.50;24.30;101380.00;;;;5026485;28;20484;-71
2022/07/31 01:12:46;;;;;;;0.85;0.70;;;25.20;46.40;24.30;101378.00;;;;5025655;28;20195;-70
2022/07/31 01:15:33;;;;;;;2.25;0.80;;;25.20;46.60;24.30;101375.00;;;;5016350;28;20044;-71
2022/07/31 01:18:19;;;;;;;1.10;0.85;;;25.30;46.60;24.30;101376.00;;;;5025529;28;20385;-70
2022/07/31 01:21:07;;;;;;;0.55;0.55;;;25.30;46.60;24.30;101373.00;;;;5027424;28;20043;-70
2022/07/31 01:25:00;;;;;;;0.73;0.60;;;25.30;46.70;24.30;101362.00;;;;5028796;28;20049;-70
2022/07/31 01:28:26;;;;;;;1.33;0.57;;;25.30;46.60;24.30;101371.00;;;;5031806;28;20068;-71
2022/07/31 01:31:45;;;;;;;0.70;0.70;;;25.30;46.50;24.20;101375.00;;;;5029434;28;20049;-71
2022/07/31 01:34:38;;;;;;;1.13;0.85;;;25.30;46.50;24.20;101369.00;;;;5025915;28;20500;-70
2022/07/31 01:37:31;;;;;;;1.95;0.82;;;25.30;46.40;24.30;101376.00;;;;5025870;28;20045;-71
2022/07/31 01:40:22;;;;;;;0.88;0.88;;;25.30;46.50;24.20;101370.00;;;;5020244;28;20524;-71
2022/07/31 01:43:14;;;;;;;0.90;0.65;;;25.30;46.40;24.30;101373.00;;;;5015892;28;20049;-71
2022/07/31 01:46:01;;;;;;;2.33;0.73;;;25.30;46.40;24.30;101368.00;;;;5014341;28;20103;-71
2022/07/31 01:48:47;;;;;;;1.13;0.75;;;25.30;46.40;24.30;101372.00;;;;5022267;28;20038;-71
2022/07/31 01:51:33;;;;;;;1.23;0.77;;;25.30;46.40;24.30;101372.00;;;;5017963;28;20041;-71
2022/07/31 01:54:19;;;;;;;1.40;0.70;;;25.30;46.50;24.30;101378.00;;;;5024506;28;20088;-70
2022/07/31 01:57:06;;;;;;;1.58;1.15;;;25.40;46.60;24.30;101364.00;;;;5025845;28;20080;-70
2022/07/31 02:00:00;;;;;;;1.20;0.80;;;25.20;46.50;24.30;101367.00;;;;5028836;28;20087;-70
2022/07/31 02:02:49;;;;;;;0.93;0.85;;;25.30;46.50;24.30;101363.00;;;;5021715;28;20041;-71
2022/07/31 02:05:35;;;;;;;1.13;0.80;;;25.30;46.50;24.30;101358.00;;;;5030775;28;20045;-70
2022/07/31 02:08:21;;;;;;;1.80;1.08;;;25.30;46.60;24.30;101356.00;;;;5022904;28;20049;-70
2022/07/31 02:11:07;;;;;;;1.70;1.00;;;25.30;46.60;24.30;101352.00;;;;4997570;28;20041;-71
2022/07/31 02:13:53;;;;;;;0.90;0.70;;;25.30;46.70;24.30;101340.00;;;;5030661;28;20055;-70
2022/07/31 02:16:40;;;;;;;1.17;0.73;;;25.30;46.60;24.30;101334.00;;;;5021527;28;20041;-71
2022/07/31 02:19:26;;;;;;;0.85;0.82;;;25.40;46.60;24.30;101338.00;;;;5026745;28;20044;-71
2022/07/31 02:22:12;;;;;;;1.00;0.90;;;25.40;46.60;24.30;101336.00;;;;5025653;28;20450;-71
2022/07/31 02:24:58;;;;;;;0.68;0.68;;;25.30;46.50;24.30;101331.00;;;;5025909;28;20042;-71
2022/07/31 02:27:44;;;;;;;1.23;0.75;;;25.30;46.50;24.30;101330.00;;;;5021521;28;20037;-71
2022/07/31 02:30:31;;;;;;;1.20;0.70;;;25.30;46.50;24.30;101329.00;;;;5023466;28;20060;-71
2022/07/31 02:33:22;;;;;;;1.30;0.75;;;25.30;46.50;24.30;101327.00;;;;5038556;28;20131;-71
2022/07/31 02:36:10;;;;;;;0.70;0.70;;;25.40;46.60;24.30;101332.00;;;;5023732;28;20075;-71
2022/07/31 02:38:56;;;;;;;2.55;0.70;;;25.30;46.60;24.30;101331.00;;;;5035720;28;20084;-70
2022/07/31 02:41:43;;;;;;;0.85;0.85;;;25.30;46.70;24.30;101333.00;;;;5036988;28;20045;-71
2022/07/31 02:44:30;;;;;;;1.38;0.80;;;25.30;46.70;24.30;101326.00;;;;5035997;28;20080;-71
2022/07/31 02:47:16;;;;;;;2.05;1.00;;;25.30;46.70;24.30;101328.00;;;;5023181;28;20192;-71
2022/07/31 02:50:03;;;;;;;0.90;0.73;;;25.30;46.60;24.30;101325.00;;;;5025448;28;20048;-71
2022/07/31 02:52:50;;;;;;;0.70;0.70;;;25.30;46.60;24.30;101325.00;;;;5023639;28;20080;-71
2022/07/31 02:55:36;;;;;;;0.88;0.80;;;25.30;46.50;24.30;101325.00;;;;5025866;28;20037;-71
2022/07/31 02:58:22;;;;;;;0.70;0.70;;;25.30;46.50;24.30;101327.00;;;;5023743;28;20029;-71
2022/07/31 03:01:08;;;;;;;0.90;0.90;;;25.40;46.50;24.30;101329.00;;;;5020933;28;20037;-71
2022/07/31 03:03:54;;;;;;;0.95;0.85;;;25.20;46.40;24.30;101334.00;;;;5027304;28;20048;-71
2022/07/31 03:06:40;;;;;;;1.50;0.90;;;25.30;46.50;24.30;101325.00;;;;5018435;28;20045;-71
2022/07/31 03:09:27;;;;;;;1.48;0.70;;;25.30;46.60;24.30;101325.00;;;;5022958;28;20403;-71
2022/07/31 03:12:13;;;;;;;1.93;0.93;;;25.30;46.60;24.30;101316.00;;;;5021715;28;20045;-71
2022/07/31 03:14:59;;;;;;;2.03;0.90;;;25.30;46.60;24.30;101321.00;;;;5021418;28;20476;-71
2022/07/31 03:17:45;;;;;;;1.08;0.98;;;25.30;46.60;24.30;101310.00;;;;5041357;28;20080;-71
2022/07/31 03:20:31;;;;;;;1.08;0.73;;;25.30;46.60;24.30;101324.00;;;;5021660;28;20050;-71
2022/07/31 03:23:20;;;;;;;0.98;0.88;;;25.20;46.50;24.30;101322.00;;;;5020549;28;20041;-71
2022/07/31 03:26:06;;;;;;;0.90;0.75;;;25.30;46.60;24.30;101320.00;;;;5018070;28;20038;-71
2022/07/31 03:28:52;;;;;;;1.95;0.70;;;25.30;46.60;24.30;101311.00;;;;5039913;28;20077;-71
2022/07/31 03:31:38;;;;;;;0.75;0.75;;;25.30;46.60;24.30;101312.00;;;;5026159;28;20295;-71
2022/07/31 03:34:24;;;;;;;1.00;0.70;;;25.30;46.60;24.30;101307.00;;;;5021827;28;20041;-70
2022/07/31 03:37:10;;;;;;;1.10;0.95;;;25.30;46.60;24.30;101311.00;;;;5025063;28;20034;-71
2022/07/31 03:39:56;;;;;;;1.17;0.70;;;25.30;46.60;24.30;101307.00;;;;5024199;28;20044;-71
2022/07/31 03:42:42;;;;;;;1.13;1.00;;;25.30;46.60;24.20;101309.00;;;;5019526;28;20098;-71
2022/07/31 03:45:30;;;;;;;1.10;0.70;;;25.40;46.70;24.20;101308.00;;;;5021495;28;20049;-70
2022/07/31 03:48:16;;;;;;;0.77;0.68;;;25.30;46.70;24.20;101310.00;;;;5022302;28;20049;-70
2022/07/31 03:51:02;;;;;;;1.33;0.77;;;25.20;46.60;24.20;101298.00;;;;5024244;28;20438;-71
2022/07/31 03:53:48;;;;;;;1.15;0.88;;;25.30;46.70;24.20;101305.00;;;;5023639;28;20302;-70
2022/07/31 03:56:34;;;;;;;1.38;0.82;;;25.20;46.70;24.20;101299.00;;;;5022514;28;20037;-70
2022/07/31 03:59:20;;;;;;;0.80;0.80;;;25.20;46.70;24.20;101303.00;;;;5040607;28;20072;-70
2022/07/31 04:02:06;;;;;;;3.17;0.95;;;25.20;46.70;24.20;101293.00;;;;5021170;28;20562;-71
2022/07/31 04:04:53;;;;;;;1.98;0.73;;;25.30;46.70;24.20;101293.00;;;;5021399;28;20510;-70
2022/07/31 04:07:39;;;;;;;0.75;0.73;;;25.20;46.70;24.20;101288.00;;;;5024245;28;20041;-71
2022/07/31 04:10:25;;;;;;;1.70;0.80;;;25.20;46.70;24.20;101286.00;;;;5021478;28;20498;-71
2022/07/31 04:13:11;;;;;;;1.27;1.00;;;25.20;46.70;24.20;101292.00;;;;5025524;28;20140;-71
2022/07/31 04:15:57;;;;;;;0.95;0.68;;;25.20;46.70;24.20;101288.00;;;;5024164;28;20037;-70
2022/07/31 04:18:43;;;;;;;1.50;1.00;;;25.20;46.70;24.20;101294.00;;;;5026635;28;20041;-70
2022/07/31 04:21:29;;;;;;;0.80;0.80;;;25.20;46.70;24.20;101294.00;;;;5028599;28;20099;-70
2022/07/31 04:24:15;;;;;;;1.05;0.90;;;25.20;46.70;24.20;101290.00;;;;5019876;28;20680;-71
2022/07/31 04:27:03;;;;;;;1.38;1.00;;;25.20;46.70;24.20;101282.00;;;;5020490;28;20054;-70
2022/07/31 04:29:49;;;;;;;1.58;1.10;;;25.20;46.60;24.20;101275.00;;;;5022546;28;20076;-71
2022/07/31 04:32:35;;;;;;;1.02;0.77;;;25.20;46.70;24.20;101277.00;;;;5024195;28;20048;-70
2022/07/31 04:35:21;;;;;;;1.13;0.77;;;25.20;46.60;24.20;101281.00;;;;5019151;28;20037;-71
2022/07/31 04:38:07;;;;;;;0.70;0.70;;;25.20;46.60;24.20;101283.00;;;;5026264;28;20056;-71
2022/07/31 04:40:53;;;;;;;2.20;1.00;;;25.20;46.60;24.20;101276.00;;;;5023707;28;20045;-70
2022/07/31 04:43:39;;;;;;;1.98;0.70;;;25.20;46.60;24.20;101265.00;;;;5016856;28;20045;-70
2022/07/31 04:46:25;;;;;;;1.58;1.00;;;25.20;46.60;24.20;101279.00;;;;5030933;28;20041;-71
2022/07/31 04:49:13;;;;;;;1.50;0.80;;;25.20;46.50;24.20;101272.00;;;;5026188;28;20048;-71
2022/07/31 04:51:59;;;;;;;1.20;0.90;;;25.20;46.60;24.20;101277.00;;;;5019765;28;20499;-70
2022/07/31 04:54:45;;;;;;;1.23;0.95;;;25.20;46.60;24.20;101268.00;;;;5024024;28;20029;-71
2022/07/31 04:57:32;;;;;;;1.20;0.85;;;25.20;46.60;24.20;101271.00;;;;5021277;28;20399;-71
2022/07/31 05:00:18;;;;;;;2.53;1.00;;;25.20;47.30;24.20;101271.00;;;;5024348;28;20033;-71
2022/07/31 05:03:04;;;;;;;1.25;0.80;;;25.20;46.60;24.20;101282.00;;;;5021390;28;20049;-71
2022/07/31 05:05:50;;;;;;;3.45;0.90;;;25.10;46.50;24.20;101276.00;;;;5022855;28;20487;-70
2022/07/31 05:08:36;;;;;;;1.23;0.93;;;25.20;46.60;24.20;101279.00;;;;5021449;28;20045;-71
2022/07/31 05:11:22;;;;;;;0.95;0.80;;;25.20;46.60;24.20;101279.00;;;;5023831;28;20203;-71
2022/07/31 05:14:11;;;;;;;1.00;0.85;;;25.10;46.50;24.20;101270.00;;;;5022164;28;20513;-70
2022/07/31 05:16:57;;;;;;;0.90;0.80;;;25.10;46.50;24.20;101274.00;;;;5024642;28;20041;-71
2022/07/31 05:19:43;;;;;;;1.60;1.00;;;25.10;46.50;24.20;101268.00;;;;5030657;28;20037;-70
2022/07/31 05:22:29;;;;;;;1.20;1.10;;;25.20;46.50;24.20;101266.00;;;;5022687;28;20049;-71
2022/07/31 05:25:15;;;;;;;0.80;0.80;;;25.20;46.60;24.20;101269.00;;;;5024917;28;20045;-70
2022/07/31 05:28:01;;;;;;;0.88;0.80;;;25.20;46.50;24.20;101274.00;;;;5022873;28;20626;-71
2022/07/31 05:30:47;;;;;;;2.40;1.02;;;25.10;46.50;24.20;101268.00;;;;5026179;28;20038;-71
2022/07/31 05:33:33;;;;;;;1.17;1.08;;;25.10;46.50;24.20;101263.00;;;;5027094;28;20379;-71
2022/07/31 05:36:20;;;;;;;1.23;0.85;;;25.20;46.50;24.20;101260.00;;;;5040212;28;20041;-71
2022/07/31 05:39:06;;;;;;;2.00;1.10;;;25.20;46.50;24.20;101262.00;;;;5027038;28;20376;-71
2022/07/31 05:41:52;;;;;;;1.20;1.10;;;25.20;46.50;24.20;101255.00;;;;5019485;28;20071;-71
2022/07/31 05:44:38;;;;;;;1.10;1.00;;;25.20;46.60;24.20;101244.00;;;;5021967;28;20053;-71
2022/07/31 05:47:24;;;;;;;2.67;0.95;;;25.20;46.60;24.20;101247.00;;;;5033544;28;20072;-71
2022/07/31 05:50:10;;;;;;;1.77;0.90;;;25.20;46.60;24.20;101241.00;;;;5022656;28;20056;-70
2022/07/31 05:52:56;;;;;;;1.35;0.95;;;25.20;46.60;24.20;101234.00;;;;5025995;28;20045;-71
2022/07/31 05:55:47;;;;;;;1.58;0.93;;;25.20;46.60;24.20;101229.00;;;;5021353;28;20044;-71
2022/07/31 05:58:33;;;;;;;1.50;1.17;;;25.20;46.60;24.20;101231.00;;;;5040662;28;20048;-71
2022/07/31 06:01:19;;;;;;;1.25;1.10;;;25.20;46.50;24.20;101238.00;;;;5025019;28;20079;-70
2022/07/31 06:04:05;;;;;;;2.92;1.13;;;25.20;46.50;24.20;101229.00;;;;5018216;28;20472;-70
2022/07/31 06:06:51;;;;;;;1.42;0.90;;;25.20;46.40;24.20;101228.00;;;;5023838;28;20038;-71
2022/07/31 06:09:37;;;;;;;1.45;0.80;;;25.20;46.40;24.20;101226.00;;;;5021989;28;20391;-71
2022/07/31 06:12:23;;;;;;;2.42;0.88;;;25.20;46.50;24.20;101222.00;;;;5021490;28;20049;-70
2022/07/31 06:15:10;;;;;;;1.65;0.95;;;25.20;46.50;24.20;101222.00;;;;5025244;28;20037;-70
2022/07/31 06:17:56;;;;;;;1.65;0.93;;;25.20;46.60;24.20;101229.00;;;;5023270;28;20103;-70
2022/07/31 06:20:42;;;;;;;1.67;1.02;;;25.20;46.50;24.20;101227.00;;;;5018356;28;20077;-70
2022/07/31 06:23:28;;;;;;;1.20;0.88;;;25.20;46.50;24.20;101225.00;;;;5027215;28;20049;-70
2022/07/31 06:26:14;;;;;;;0.93;0.85;;;25.20;46.50;24.20;101241.00;;;;5022098;28;20042;-70
2022/07/31 06:29:01;;;;;;;0.90;0.85;;;25.20;46.50;24.20;101230.00;;;;5024692;28;20050;-71
2022/07/31 06:31:47;;;;;;;1.05;0.95;;;25.20;46.40;24.20;101228.00;;;;5024637;28;20099;-71
2022/07/31 06:34:33;;;;;;;1.23;1.02;;;25.20;46.30;24.20;101225.00;;;;5022351;28;20052;-71
2022/07/31 06:37:19;;;;;;;1.27;1.10;;;25.20;47.00;24.20;101223.00;;;;5024687;28;20041;-71
2022/07/31 06:40:06;;;;;;;1.70;1.20;;;25.30;46.40;24.20;101218.00;;;;5021367;28;20041;-71
2022/07/31 06:42:52;;;;;;;2.58;1.27;;;25.20;46.30;24.20;101223.00;;;;5017383;28;20034;-71
2022/07/31 06:45:41;;;;;;;2.05;1.60;;;25.20;46.30;24.20;101225.00;;;;5022190;28;20109;-70
2022/07/31 06:48:27;;;;;;;1.38;0.98;;;25.20;46.30;24.20;101230.00;;;;5021990;28;20037;-71
2022/07/31 06:51:13;;;;;;;1.92;1.35;;;25.20;46.40;24.20;101222.00;;;;5023576;28;20502;-71
2022/07/31 06:54:00;;;;;;;1.30;1.20;;;25.20;46.30;24.20;101230.00;;;;5022403;28;20037;-70
2022/07/31 06:56:46;;;;;;;1.63;1.40;;;25.20;46.30;24.20;101224.00;;;;5021260;28;20472;-70
2022/07/31 06:59:32;;;;;;;2.33;1.23;;;25.30;47.10;24.20;101221.00;;;;5023529;28;20490;-70
2022/07/31 07:02:18;;;;;;;1.98;1.17;;;25.20;46.30;24.20;101228.00;;;;5019439;28;20049;-70
2022/07/31 07:05:05;;;;;;;2.60;1.20;;;25.20;46.40;24.20;101224.00;;;;5017520;28;20533;-70
2022/07/31 07:07:51;;;;;;;2.03;1.80;;;25.20;46.30;24.20;101231.00;;;;5023901;28;20045;-70
2022/07/31 07:10:37;;;;;;;1.60;1.30;;;25.20;46.30;24.20;101224.00;;;;5018421;28;20045;-71
2022/07/31 07:13:25;;;;;;;2.28;1.33;;;25.30;46.50;24.20;101212.00;;;;5029792;28;20033;-70
2022/07/31 07:16:29;;;;;;;2.38;1.35;;;25.20;46.30;24.20;101216.00;;;;5022530;28;20083;-70
2022/07/31 07:19:15;;;;;;;3.05;1.70;;;25.20;46.30;24.20;101219.00;;;;5022369;28;20046;-70
2022/07/31 07:22:01;;;;;;;1.42;1.33;;;25.30;46.40;24.20;101217.00;;;;5020180;28;20565;-71
2022/07/31 07:24:47;;;;;;;3.38;1.52;;;25.20;46.40;24.20;101213.00;;;;5021878;28;20042;-70
2022/07/31 07:27:33;;;;;;;2.08;1.30;;;25.30;46.50;24.20;101194.00;;;;5022613;28;20095;-71
2022/07/31 07:30:19;;;;;;;1.65;1.23;;;25.20;46.40;24.20;101191.00;;;;5017594;28;20045;-70
2022/07/31 07:33:05;;;;;;;2.33;1.48;;;25.20;46.40;24.20;101193.00;;;;5023353;28;20049;-70
2022/07/31 07:35:51;;;;;;;1.98;1.02;;;25.30;46.50;24.20;101199.00;;;;5022125;28;20116;-70
2022/07/31 07:38:37;;;;;;;3.08;1.40;;;25.30;47.30;24.20;101188.00;;;;5022226;28;20467;-70
2022/07/31 07:41:24;;;;;;;5.10;1.80;;;25.30;46.50;24.20;101188.00;;;;5025487;28;20045;-70
2022/07/31 07:44:10;;;;;;;2.80;1.98;;;25.20;46.40;24.20;101191.00;;;;5021277;28;20046;-70
2022/07/31 07:46:56;;;;;;;2.33;1.98;;;25.30;46.50;24.20;101183.00;;;;5025853;28;20124;-70
2022/07/31 07:49:42;;;;;;;1.85;1.38;;;25.20;46.50;24.20;101182.00;;;;5025419;28;20044;-70
2022/07/31 07:52:28;;;;;;;2.22;1.40;;;25.20;46.70;24.20;101185.00;;;;5025119;28;20380;-70
2022/07/31 07:55:14;;;;;;;3.28;1.65;;;25.30;46.70;24.20;101182.00;;;;5028856;28;20491;-70
2022/07/31 07:58:00;;;;;;;2.67;1.80;;;25.30;46.80;24.20;101186.00;;;;5024721;28;20481;-70
2022/07/31 08:00:46;;;;;;;3.10;2.03;;;25.30;47.60;24.20;101177.00;;;;5023098;28;20277;-70
2022/07/31 08:03:32;;;;;;;3.70;2.60;;;25.20;47.60;24.20;101184.00;;;;5026289;28;20048;-70
2022/07/31 08:06:20;;;;;;;4.35;2.67;;;25.20;46.90;24.20;101185.00;;;;5028782;28;20052;-70
2022/07/31 08:09:06;;;;;;;4.10;2.40;;;25.20;47.00;24.20;101179.00;;;;5041570;28;20091;-71
2022/07/31 08:11:52;;;;;;;5.57;3.30;;;25.20;47.00;24.20;101178.00;;;;5024155;28;20558;-71
2022/07/31 08:14:38;;;;;;;5.38;3.22;;;25.20;47.10;24.20;101176.00;;;;5023421;28;20041;-71
2022/07/31 08:17:24;;;;;;;5.32;3.05;;;25.20;47.10;24.20;101176.00;;;;5024024;28;20143;-70
2022/07/31 08:20:10;;;;;;;7.68;3.50;;;25.20;47.10;24.20;101174.00;;;;5027442;28;20045;-71
2022/07/31 08:22:56;;;;;;;5.10;3.70;;;25.20;47.20;24.20;101183.00;;;;5023508;28;20099;-73
2022/07/31 08:25:42;;;;;;;3.58;2.88;;;25.20;47.20;24.20;101180.00;;;;5026685;28;20045;-71
2022/07/31 08:28:28;;;;;;;4.72;3.30;;;25.20;47.40;24.20;101177.00;;;;5030693;28;20046;-71
2022/07/31 08:31:14;;;;;;;4.40;3.20;;;25.20;47.30;24.20;101177.00;;;;5023541;28;20438;-71
2022/07/31 08:34:00;;;;;;;4.22;3.55;;;25.30;47.40;24.20;101185.00;;;;5023148;28;20108;-71
2022/07/31 08:36:46;;;;;;;4.80;3.30;;;25.20;47.40;24.20;101189.00;;;;5022904;28;20053;-71
2022/07/31 08:39:33;;;;;;;5.57;3.42;;;25.30;47.50;24.20;101188.00;;;;5030736;28;20396;-71
2022/07/31 08:42:19;;;;;;;6.38;3.70;;;25.20;47.50;24.20;101193.00;;;;5019923;28;20049;-71
2022/07/31 08:45:06;;;;;;;5.40;3.33;;;25.30;47.60;24.20;101196.00;;;;5007170;28;20053;-71
2022/07/31 08:47:52;;;;;;;4.85;3.00;;;25.30;47.60;24.20;101195.00;;;;5026696;28;20037;-71
2022/07/31 08:50:39;;;;;;;7.22;3.08;;;25.30;47.70;24.20;101197.00;;;;5011912;28;20479;-74
2022/07/31 08:53:28;;;;;;;5.18;3.00;;;25.20;47.60;24.20;101194.00;;;;5010619;28;20046;-71
2022/07/31 08:56:14;;;;;;;5.25;2.90;;;25.30;47.70;24.20;101203.00;;;;5028019;28;20045;-71
2022/07/31 08:59:01;;;;;;;4.70;2.90;;;25.20;47.80;24.20;101198.00;;;;5026543;28;20402;-71
2022/07/31 09:01:47;;;;;;;7.15;3.20;;;25.30;47.90;24.20;101197.00;;;;5028160;28;20042;-71
2022/07/31 09:04:33;;;;;;;6.53;2.95;;;25.30;47.90;24.20;101200.00;;;;5018912;28;20040;-70
2022/07/31 09:07:19;;;;;;;4.68;2.95;;;25.20;47.80;24.20;101202.00;;;;5022105;28;20439;-70
2022/07/31 09:10:26;;;;;;;3.28;2.90;;;25.40;48.00;24.20;101200.00;;;;5021572;28;20143;-70
2022/07/31 09:13:15;;;;;;;4.78;3.13;;;25.30;48.00;24.20;101199.00;;;;5022068;28;20128;-71
2022/07/31 09:16:01;;;;;;;7.88;3.85;;;25.30;48.00;24.20;101192.00;;;;5023356;28;20041;-70
2022/07/31 09:19:01;;;;;;;6.60;3.40;;;25.30;48.10;24.20;101190.00;;;;5025091;28;20041;-70
2022/07/31 09:21:47;;;;;;;4.55;3.20;;;25.30;48.20;24.20;101195.00;;;;5027590;28;20041;-70
2022/07/31 09:24:34;;;;;;;7.13;3.30;;;25.30;48.10;24.20;101180.00;;;;5024478;28;20052;-70
2022/07/31 09:27:26;;;;;;;4.53;3.65;;;25.30;48.20;24.20;101190.00;;;;5020110;28;20049;-70
2022/07/31 09:30:14;;;;;;;6.28;4.10;;;25.30;48.20;24.20;101187.00;;;;5021809;28;20112;-69
2022/07/31 09:33:16;;;;;;;6.20;3.72;;;25.30;48.20;24.20;101188.00;;;;5020150;28;20080;-70
2022/07/31 09:36:03;;;;;;;5.93;4.00;;;25.30;48.20;24.20;101186.00;;;;5025436;28;20033;-70
2022/07/31 09:38:49;;;;;;;7.83;4.27;;;25.30;48.20;24.20;101183.00;;;;5021657;28;20509;-70
2022/07/31 09:41:35;;;;;;;9.75;4.25;;;25.30;48.30;24.20;101184.00;;;;5028133;28;20375;-70
2022/07/31 09:44:21;;;;;;;7.20;4.25;;;25.30;48.20;24.30;101181.00;;;;5052621;28;20471;-69
2022/07/31 09:47:25;;;;;;;5.82;4.72;;;25.30;48.30;24.20;101177.00;;;;5024212;28;20045;-70
2022/07/31 09:50:11;;;;;;;9.43;5.05;;;25.30;48.60;24.30;101180.00;;;;5025454;28;20095;-70
2022/07/31 09:52:59;;;;;;;7.95;5.35;;;25.30;48.50;24.30;101179.00;;;;5019405;28;20042;-70
2022/07/31 09:55:52;;;;;;;10.63;5.97;;;25.30;48.60;24.30;101169.00;;;;5022185;28;20041;-70
2022/07/31 09:58:39;;;;;;;8.00;5.78;;;25.30;48.60;24.30;101176.00;;;;5025201;28;20116;-70
2022/07/31 10:01:26;;;;;;;8.07;5.50;;;25.30;48.60;24.30;101170.00;;;;5022037;28;20072;-70
2022/07/31 10:04:12;;;;;;;6.90;5.32;;;25.40;48.70;24.30;101179.00;;;;5022892;28;20034;-70
2022/07/31 10:06:58;;;;;;;7.97;5.70;;;25.30;48.70;24.30;101175.00;;;;5023281;28;20487;-70
2022/07/31 10:09:44;;;;;;;8.38;5.43;;;25.40;48.70;24.30;101185.00;;;;5013625;28;20387;-70
2022/07/31 10:14:09;;;;;;;8.02;5.82;;;25.40;48.80;24.30;101188.00;;;;5020897;28;20056;-70
2022/07/31 10:16:51;;;;;;;7.40;5.78;;;25.30;48.80;24.30;101189.00;;;;5018125;28;20363;-70
2022/07/31 10:19:40;;;;;;;8.02;5.68;;;25.40;48.90;24.30;101180.00;;;;5037653;28;20033;-70
2022/07/31 10:22:27;;;;;;;10.18;6.32;;;25.40;48.80;24.30;101180.00;;;;5025224;28;20391;-70
2022/07/31 10:25:22;;;;;;;10.48;6.50;;;25.40;48.90;24.30;101183.00;;;;5018293;28;20053;-70
2022/07/31 10:28:08;;;;;;;9.45;6.22;;;25.40;48.90;24.30;101183.00;;;;5020796;28;20060;-71
2022/07/31 10:30:55;;;;;;;9.32;6.82;;;25.40;48.80;24.30;101174.00;;;;5022568;28;20091;-71
2022/07/31 10:33:41;;;;;;;14.90;7.87;;;25.40;48.80;24.30;101165.00;;;;5015432;28;20063;-71
2022/07/31 10:36:32;;;;;;;8.77;6.57;;;25.40;48.80;24.30;101161.00;;;;5015907;28;20083;-70
2022/07/31 10:39:30;;;;;;;9.25;7.22;;;25.40;49.00;24.30;101163.00;;;;5014191;28;20093;-72
2022/07/31 10:42:54;;;;;;;9.50;6.53;;;25.50;49.10;24.30;101156.00;;;;5005180;28;20068;-71
2022/07/31 10:45:54;;;;;;;15.15;7.03;;;25.40;49.00;24.30;101165.00;;;;5014751;28;20048;-72
2022/07/31 10:48:52;;;;;;;10.80;6.80;;;25.40;49.00;24.30;101154.00;;;;5006023;28;20046;-72
2022/07/31 10:51:48;;;;;;;;;;;25.40;48.90;24.30;101168.00;;;;5020651;28;20051;-72
2022/07/31 10:54:42;;;;;;;10.50;6.05;;;25.40;48.60;24.30;101164.00;;;;5043483;28;19963;-72
2022/07/31 10:57:30;;;;;;;9.40;5.28;;;25.50;48.80;24.30;101161.00;;;;5006398;28;20404;-72
2022/07/31 11:00:21;;;;;;;6.05;5.38;;;25.40;48.80;24.30;101156.00;;;;5020663;28;20050;-72
2022/07/31 11:03:21;;;;;;;10.52;6.30;;;25.40;48.90;24.30;101159.00;;;;5020678;28;20068;-73
2022/07/31 11:06:07;;;;;;;8.70;6.18;;;25.40;49.00;24.30;101159.00;;;;5021176;28;20037;-72
2022/07/31 11:08:53;;;;;;;9.27;5.78;;;25.40;49.10;24.30;101163.00;;;;5018691;28;20037;-72
2022/07/31 11:11:39;;;;;;;6.07;5.28;;;25.30;49.30;24.30;101156.00;;;;5018579;28;20546;-70
2022/07/31 11:14:37;;;;;;;6.55;5.05;;;25.50;49.50;24.30;101149.00;;;;5028715;28;20045;-70
2022/07/31 11:17:35;;;;;;;7.93;4.90;;;25.40;49.90;24.30;101153.00;;;;5020103;28;20037;-70
2022/07/31 11:20:29;;;;;;;7.80;4.05;;;25.40;50.10;24.30;101157.00;;;;5021636;28;20623;-70
2022/07/31 11:23:16;;;;;;;5.78;4.35;;;25.40;50.20;24.30;101153.00;;;;5023448;28;20072;-70
2022/07/31 11:26:05;;;;;;;5.93;4.17;;;25.40;50.20;24.30;101149.00;;;;5022527;28;20048;-70
2022/07/31 11:28:51;;;;;;;6.57;4.43;;;25.40;50.20;24.30;101152.00;;;;5023450;28;20737;-70
2022/07/31 11:31:37;;;;;;;5.15;3.75;;;25.50;50.50;24.30;101143.00;;;;5021253;28;20042;-73
2022/07/31 11:34:24;;;;;;;6.30;4.50;;;25.40;50.70;24.40;101145.00;;;;5026483;28;20360;-70
2022/07/31 11:37:24;;;;;;;8.15;4.03;;;25.40;50.80;24.40;101141.00;;;;5020045;28;20056;-71
2022/07/31 11:40:10;;;;;;;8.10;3.85;;;25.40;51.00;24.40;101142.00;;;;5021517;28;20065;-71
2022/07/31 11:42:57;;;;;;;5.07;3.85;;;25.50;50.90;24.40;101139.00;;;;5021768;28;20072;-71
2022/07/31 11:45:52;;;;;;;5.40;4.20;;;25.40;50.90;24.40;101140.00;;;;5029380;28;20463;-71
2022/07/31 11:48:38;;;;;;;3.85;3.42;;;25.50;51.00;24.40;101140.00;;;;5050101;28;20537;-71
2022/07/31 11:51:25;;;;;;;4.05;3.00;;;25.50;50.90;24.40;101137.00;;;;5023438;28;20041;-71
2022/07/31 11:54:21;;;;;;;3.60;3.00;;;25.50;50.80;24.40;101132.00;;;;5020115;28;20037;-70
2022/07/31 11:57:07;;;;;;;6.65;3.28;;;25.50;50.70;24.40;101135.00;;;;5020006;28;20041;-71
2022/07/31 11:59:53;;;;;;;4.05;3.25;;;25.50;50.60;24.40;101125.00;;;;5029426;28;20037;-70
2022/07/31 12:02:43;;;;;;;4.63;3.40;;;25.50;50.60;24.40;101129.00;;;;5037119;28;20040;-71
2022/07/31 12:05:29;;;;;;;6.25;3.13;;;25.50;50.50;24.40;101126.00;;;;5023472;28;20056;-71
2022/07/31 12:08:16;;;;;;;4.78;2.78;;;25.50;50.40;24.40;101131.00;;;;5020662;28;20056;-71
2022/07/31 12:11:04;;;;;;;3.83;2.85;;;25.50;50.30;24.40;101127.00;;;;5034725;28;20515;-72
2022/07/31 12:13:50;;;;;;;4.38;2.85;;;25.50;50.20;24.40;101126.00;;;;5010865;28;20041;-71
2022/07/31 12:16:40;;;;;;;4.45;2.65;;;25.50;50.20;24.40;101131.00;;;;5024293;28;20040;-71
2022/07/31 12:19:32;;;;;;;3.92;2.95;;;25.50;50.20;24.40;101127.00;;;;5042101;28;20445;-71